مكناس, المغرب

12:57 PM WEST on هاêè 29, 2015 (GMT +0100)
Meknes | | Change Station
CLOSE
Current Station
Airport
Location: Meknes,
Elevation: 1890 ft
Nearby Weather Stations

Elev 1890 ft 33.88 °N, 5.52 °W | Updated 17 minutes ago

Partly Cloudy
غائم جزئياً
63 °F
Feels Like 63 °F
N
7
ريح متغير ريح from SSW

هذا اليوم
High -- | Low -- °F
--% Chance of Precip.
Yesterday
High -- | Low -- °F
Precip. -- في
6:13 AM 8:25 PM
الأحدب الأول, 83% visible
الضغط 30.06 في
وضوح الرؤية 2.5 أميال
سحابات غيوم متفرقة 1300 ft
غائم كلياً 2300 ft
Few 3000 ft
نقطة الندى 55 °F
الرطوبة 77%
Rainfall 0.00 في
عمق الثلج Not available.
الأشعة فوق البنفسجية 12 out of 12
Pollen Not available.
جودة الهواء Not available.
Flu Activity Not available.
METAR GMFM 291140Z 20006KT 4000 SCT013 BKN023 FEW030CB 17/13 Q1018 B8

More Conditions Fewer Conditions

الضغط 30.06 في
وضوح الرؤية 2.5 أميال
سحابات غيوم متفرقة 1300 ft
غائم كلياً 2300 ft
Few 3000 ft
نقطة الندى 55 °F
الرطوبة 77%
Rainfall 0.00 في
عمق الثلج Not available.
الأشعة فوق البنفسجية 12 out of 12
Pollen Not available.
جودة الهواء Not available.
Flu Activity Not available.
METAR GMFM 291140Z 20006KT 4000 SCT013 BKN023 FEW030CB 17/13 Q1018 B8

More Conditions Fewer Conditions

10-Day Weather Forecast

Almanac

علم الفلك

May. 29, 2015 Rise Set
Actual Time
Civil Twilight
Nautical Twilight
Astronomical Twilight
قمر
Length Of Visible Light
طول الیوم
Tomorrow will be .
, % of the Moon is Illuminated

Today's Extremes

Country Highs Country Lows

Community

WunderPhotos

Upload Photos

1,825,246 photos uploaded!

WunderBlogs® & News

Nearby

جودة الهواء

  جودة الهواء AQ Index Pollutant
Not available.

عمق الثلج

Station Depth Elevation

Earthquake Activity

City Distance Mag. Time & Date
Minimum magnitude displayed is 2.5.

Coastal Water Temperatures

مكان درجات الحرارة

Stations

Nearby Weather Stations

Station Location الحرارة رياح باردة نقطة الندى الرطوبة ريح Precip. Elev تحديث Type